Time;durP1;ratioP1;P1;durP2;ratioP2;P2;SDS_P1;SDS_P2;PMS_P1;PMS_P2;Temp;Humidity;BMP_temperature;BMP_pressure;BME280_temperature;BME280_humidity;BME280_pressure;Samples;Min_cycle;Max_cycle;Signal;HPM_P1;HPM_P2
2021/07/27 00:00:36;;;;;;;5.75;2.88;;;;;;;25.42;33.29;99811.69;5011489;28;20418;-74
2021/07/27 00:03:03;;;;;;;3.78;2.97;;;;;;;25.96;33.35;99903.97;5011436;28;20021;-75
2021/07/27 00:05:30;;;;;;;4.75;3.22;;;;;;;25.13;33.08;99775.41;5011225;28;20029;-75
2021/07/27 00:07:55;;;;;;;3.75;3.20;;;;;;;25.55;33.16;99851.72;5010042;28;20487;-74
2021/07/27 00:10:21;;;;;;;4.07;3.22;;;;;;;25.80;33.33;99896.94;5011325;28;20071;-75
2021/07/27 00:12:47;;;;;;;4.75;3.13;;;;;;;25.69;33.43;99881.78;5011390;28;20413;-75
2021/07/27 00:15:13;;;;;;;5.13;3.20;;;;;;;25.55;33.67;99891.47;5011424;28;20026;-75
2021/07/27 00:17:38;;;;;;;4.15;3.30;;;;;;;25.17;33.76;99836.75;5013165;28;20026;-75
2021/07/27 00:20:04;;;;;;;4.57;3.60;;;;;;;25.41;33.75;99896.59;5015423;28;20022;-75
2021/07/27 00:22:29;;;;;;;5.88;3.05;;;;;;;25.42;33.84;99873.06;5015047;28;20105;-75
2021/07/27 00:24:57;;;;;;;3.95;2.70;;;;;;;24.93;34.00;99792.38;5015251;28;20018;-75
2021/07/27 00:27:22;;;;;;;4.63;3.28;;;;;;;25.22;33.87;99839.47;5015234;28;20037;-75
2021/07/27 00:29:48;;;;;;;4.55;3.53;;;;;;;25.18;33.77;99824.06;5014065;28;20028;-76
2021/07/27 00:32:13;;;;;;;7.85;3.75;;;;;;;25.38;34.02;99855.75;5013989;28;20422;-75
2021/07/27 00:34:40;;;;;;;5.60;3.20;;;;;;;25.61;33.82;99883.09;5015120;28;20475;-75
2021/07/27 00:37:05;;;;;;;4.82;3.20;;;;;;;25.21;33.83;99821.63;5015266;28;20057;-75
2021/07/27 00:39:30;;;;;;;3.70;3.10;;;;;;;25.22;33.70;99835.97;5015202;28;20117;-75
2021/07/27 00:41:56;;;;;;;4.78;3.47;;;;;;;25.46;33.89;99876.84;5013595;28;20067;-75
2021/07/27 00:44:21;;;;;;;4.10;3.10;;;;;;;25.20;33.96;99851.63;5014848;28;20044;-75
2021/07/27 00:46:47;;;;;;;5.65;3.40;;;;;;;25.32;34.13;99890.88;5014902;28;20034;-75
2021/07/27 00:49:12;;;;;;;5.85;3.30;;;;;;;25.23;34.26;99892.44;5014900;28;20113;-75
2021/07/27 00:51:39;;;;;;;3.78;3.35;;;;;;;25.17;34.10;99890.81;5014827;28;20030;-75
2021/07/27 00:54:06;;;;;;;5.40;2.97;;;;;;;25.12;33.95;99896.19;5014887;28;20106;-75
2021/07/27 00:56:34;;;;;;;6.00;3.25;;;;;;;24.89;34.12;99883.91;5014470;28;20475;-75
2021/07/27 00:59:00;;;;;;;5.82;3.53;;;;;;;24.57;34.45;99840.03;5013499;28;20025;-75
2021/07/27 01:01:25;;;;;;;5.88;3.25;;;;;;;24.82;34.50;99887.94;5014531;28;20026;-74
2021/07/27 01:03:51;;;;;;;5.90;3.38;;;;;;;24.58;34.92;99858.66;5014503;28;20056;-75
2021/07/27 01:06:16;;;;;;;5.03;3.33;;;;;;;24.40;34.93;99848.28;5014500;28;20479;-75
2021/07/27 01:08:43;;;;;;;4.97;3.38;;;;;;;24.64;34.75;99895.41;5014525;28;20446;-74
2021/07/27 01:11:08;;;;;;;4.65;3.05;;;;;;;24.58;34.97;99903.75;5013351;28;20030;-74
2021/07/27 01:13:34;;;;;;;5.45;3.55;;;;;;;23.91;35.16;99826.06;5014341;28;20021;-75
2021/07/27 01:16:04;;;;;;;4.45;2.92;;;;;;;24.36;35.33;99896.56;5014285;28;20021;-75
2021/07/27 01:18:34;;;;;;;6.15;3.40;;;;;;;24.05;35.18;99833.47;5014495;28;20025;-74
2021/07/27 01:39:56;;;;;;;6.47;3.50;;;;;;;23.61;35.61;99821.22;5013995;28;20108;-75
2021/07/27 01:42:21;;;;;;;5.75;3.35;;;;;;;23.83;35.89;99864.31;5014238;28;20136;-74
2021/07/27 01:44:47;;;;;;;4.32;3.35;;;;;;;24.08;35.75;99899.56;5012583;28;20026;-75
2021/07/27 01:47:20;;;;;;;4.90;3.53;;;;;;;23.79;35.75;99845.13;5013635;28;20030;-75
2021/07/27 01:49:47;;;;;;;6.28;3.65;;;;;;;24.13;35.63;99890.69;5013766;28;20017;-75
2021/07/27 01:52:16;;;;;;;7.32;4.03;;;;;;;24.24;35.56;99897.78;5013707;28;20026;-75
2021/07/27 01:54:46;;;;;;;4.28;3.17;;;;;;;24.32;35.40;99894.66;5013755;28;20014;-75
2021/07/27 01:57:13;;;;;;;10.65;3.90;;;;;;;24.39;35.46;99901.44;5012558;28;20026;-75
2021/07/27 01:59:39;;;;;;;4.15;3.15;;;;;;;24.50;35.46;99901.50;5012532;28;20572;-75
2021/07/27 02:02:06;;;;;;;7.32;3.60;;;;;;;24.55;35.27;99894.28;5013404;28;20037;-75
2021/07/27 02:04:32;;;;;;;7.18;3.58;;;;;;;24.46;35.22;99868.81;5013580;28;20044;-75
2021/07/27 02:06:58;;;;;;;4.97;3.70;;;;;;;24.67;35.44;99905.69;5013423;28;20064;-75
2021/07/27 02:09:24;;;;;;;8.93;3.60;;;;;;;24.66;35.43;99911.34;5013430;28;20041;-74
2021/07/27 02:11:54;;;;;;;6.82;4.05;;;;;;;24.51;35.57;99882.34;5012245;28;20403;-75
2021/07/27 02:14:19;;;;;;;4.68;3.60;;;;;;;24.66;35.46;99906.75;5011954;28;20029;-74
2021/07/27 02:16:45;;;;;;;8.85;4.15;;;;;;;24.58;35.42;99896.47;5013359;28;20034;-74
2021/07/27 02:19:10;;;;;;;8.70;3.75;;;;;;;24.38;35.39;99861.22;5013212;28;20026;-75
2021/07/27 02:21:35;;;;;;;5.20;3.80;;;;;;;24.19;35.31;99844.59;5013174;28;20025;-74
2021/07/27 02:24:02;;;;;;;8.30;3.90;;;;;;;24.61;35.34;99905.91;5011974;28;20025;-75
2021/07/27 02:26:28;;;;;;;7.80;3.78;;;;;;;24.26;35.41;99858.69;5012969;28;20022;-75
2021/07/27 02:28:54;;;;;;;6.78;3.90;;;;;;;24.31;35.38;99871.44;5012968;28;20521;-75
2021/07/27 02:31:27;;;;;;;6.18;3.60;;;;;;;24.05;35.71;99841.56;5013006;28;20472;-75
2021/07/27 02:33:52;;;;;;;12.70;3.80;;;;;;;24.34;35.82;99914.91;5013049;28;20059;-74
2021/07/27 02:36:18;;;;;;;7.72;4.25;;;;;;;24.00;35.61;99873.06;5012920;28;20503;-75
2021/07/27 02:38:44;;;;;;;8.75;3.63;;;;;;;23.98;35.60;99886.00;5012691;28;20487;-75
2021/07/27 02:41:12;;;;;;;10.98;3.80;;;;;;;24.17;35.82;99916.91;5012646;28;20022;-75
2021/07/27 02:43:37;;;;;;;5.32;4.30;;;;;;;23.68;36.01;99857.69;5012447;28;20034;-75
2021/07/27 02:46:03;;;;;;;4.88;3.33;;;;;;;23.79;36.25;99879.38;5012582;28;20032;-75
2021/07/27 02:48:28;;;;;;;8.55;3.55;;;;;;;23.98;35.87;99921.06;5012812;28;20028;-75
2021/07/27 02:51:01;;;;;;;5.43;3.58;;;;;;;23.87;36.26;99916.66;5012733;28;20056;-75
2021/07/27 02:53:30;;;;;;;7.28;3.80;;;;;;;23.86;36.23;99918.53;5012456;28;20104;-75
2021/07/27 02:55:58;;;;;;;6.57;3.42;;;;;;;23.87;35.83;99916.66;5012539;28;20490;-74
2021/07/27 02:58:23;;;;;;;7.22;3.42;;;;;;;23.87;36.15;99914.78;5012395;28;20026;-75
2021/07/27 03:00:48;;;;;;;5.72;3.67;;;;;;;23.86;36.16;99913.16;5012472;28;20517;-74
2021/07/27 03:03:14;;;;;;;9.32;3.88;;;;;;;23.45;36.20;99857.97;5011185;28;20029;-75
2021/07/27 03:05:39;;;;;;;6.28;3.10;;;;;;;23.83;36.26;99923.63;5012260;28;20028;-75
2021/07/27 03:08:10;;;;;;;6.95;3.60;;;;;;;23.84;36.16;99915.28;5012591;28;20034;-74
2021/07/27 03:10:35;;;;;;;4.88;3.25;;;;;;;23.44;36.01;99857.16;5012450;28;20026;-75
2021/07/27 03:13:01;;;;;;;7.97;3.85;;;;;;;23.76;36.08;99905.75;5012343;28;20200;-74
2021/07/27 03:15:29;;;;;;;6.93;3.80;;;;;;;23.53;36.52;99880.97;5012296;28;20018;-75
2021/07/27 03:17:59;;;;;;;7.50;3.92;;;;;;;23.67;36.46;99918.06;5010975;28;20030;-74
2021/07/27 03:20:28;;;;;;;5.93;3.78;;;;;;;23.64;36.50;99923.97;5010882;28;20119;-75
2021/07/27 03:22:55;;;;;;;6.55;3.80;;;;;;;23.67;36.47;99918.06;5012107;28;20076;-75
2021/07/27 03:25:21;;;;;;;10.90;3.88;;;;;;;23.22;36.34;99842.91;5010774;28;20495;-75
2021/07/27 03:27:48;;;;;;;8.52;4.10;;;;;;;23.54;36.45;99877.19;5012035;28;20037;-75
2021/07/27 03:30:15;;;;;;;7.70;3.70;;;;;;;23.80;36.46;99913.34;5011982;28;20018;-75
2021/07/27 03:32:42;;;;;;;8.35;3.80;;;;;;;23.85;36.39;99918.78;5011889;28;20022;-75
2021/07/27 03:35:08;;;;;;;6.95;4.18;;;;;;;23.84;36.43;99927.94;5010687;28;20021;-75
2021/07/27 03:37:34;;;;;;;11.00;3.70;;;;;;;23.53;36.44;99883.66;5011491;28;20026;-75
2021/07/27 03:40:00;;;;;;;7.13;4.20;;;;;;;23.68;36.43;99913.47;5011566;28;20479;-75
2021/07/27 03:42:26;;;;;;;12.63;4.40;;;;;;;23.72;36.49;99923.50;5011554;28;20028;-75
2021/07/27 03:44:55;;;;;;;9.05;4.22;;;;;;;23.73;36.66;99918.91;5011587;28;20030;-76
2021/07/27 03:47:21;;;;;;;7.57;3.70;;;;;;;23.59;36.66;99901.53;5011838;28;20034;-76
2021/07/27 03:49:46;;;;;;;4.47;3.67;;;;;;;23.53;36.62;99889.84;5011652;28;20108;-77
2021/07/27 03:52:11;;;;;;;7.57;4.63;;;;;;;23.72;36.61;99933.47;5011050;28;20057;-76
2021/07/27 03:54:37;;;;;;;7.10;4.40;;;;;;;23.60;36.65;99920.16;5011639;28;20029;-75
2021/07/27 03:57:03;;;;;;;10.65;6.00;;;;;;;23.63;36.57;99924.22;5011388;28;20014;-76
2021/07/27 03:59:33;;;;;;;13.15;7.20;;;;;;;23.40;36.64;99896.47;5011441;28;20080;-76
2021/07/27 04:01:59;;;;;;;13.68;8.25;;;;;;;23.68;36.62;99945.84;5011655;28;20022;-75
2021/07/27 04:04:25;;;;;;;17.70;11.20;;;;;;;23.68;36.56;99946.66;5011399;28;20056;-75
2021/07/27 04:06:51;;;;;;;20.80;11.90;;;;;;;23.72;36.39;99955.03;5011350;28;20025;-76
2021/07/27 04:09:16;;;;;;;16.77;11.27;;;;;;;23.50;36.50;99919.19;5010067;28;20033;-76
2021/07/27 04:11:42;;;;;;;21.60;12.50;;;;;;;23.10;36.63;99863.81;5011305;28;20463;-76
2021/07/27 04:14:07;;;;;;;17.65;10.82;;;;;;;23.40;36.65;99912.63;5011664;28;20056;-76
2021/07/27 04:16:36;;;;;;;12.95;8.85;;;;;;;23.68;36.65;99949.34;5011569;28;20026;-76
2021/07/27 04:19:01;;;;;;;9.15;6.72;;;;;;;23.36;36.72;99914.19;5010086;28;20022;-76
2021/07/27 04:21:27;;;;;;;8.50;5.85;;;;;;;23.33;36.85;99922.78;5011234;28;20026;-75
2021/07/27 04:23:52;;;;;;;7.65;5.20;;;;;;;23.15;36.87;99893.50;5011296;28;20041;-76
2021/07/27 04:26:18;;;;;;;9.95;5.00;;;;;;;23.48;36.97;99961.75;5011429;28;20026;-75
2021/07/27 04:28:43;;;;;;;6.55;4.70;;;;;;;23.55;36.96;99963.22;5011096;28;20079;-75
2021/07/27 04:31:08;;;;;;;10.82;4.28;;;;;;;23.31;36.91;99921.41;5011473;28;20018;-76
2021/07/27 04:33:34;;;;;;;8.10;4.00;;;;;;;23.64;36.77;99963.59;5011114;28;20026;-77
2021/07/27 04:35:59;;;;;;;6.65;4.32;;;;;;;23.68;36.85;99964.69;5011066;28;20457;-76
2021/07/27 04:38:24;;;;;;;9.40;4.20;;;;;;;23.70;36.77;99962.56;5010990;28;20625;-76
2021/07/27 04:40:53;;;;;;;7.43;4.40;;;;;;;23.80;36.64;99962.69;5011091;28;20022;-76
2021/07/27 04:43:19;;;;;;;8.55;4.80;;;;;;;23.87;36.61;99962.50;5010907;28;20034;-76
2021/07/27 04:45:44;;;;;;;7.70;4.88;;;;;;;23.42;36.93;99888.94;5010905;28;20018;-75
2021/07/27 04:48:10;;;;;;;7.32;4.80;;;;;;;23.89;36.76;99963.88;5010905;28;20036;-75
2021/07/27 04:50:36;;;;;;;7.00;4.65;;;;;;;23.76;37.02;99948.06;5010756;28;20459;-75
2021/07/27 04:53:08;;;;;;;11.52;4.70;;;;;;;23.65;36.68;99924.78;5010907;28;20049;-75
2021/07/27 04:55:34;;;;;;;7.05;4.47;;;;;;;23.60;36.69;99905.84;5010800;28;20022;-77
2021/07/27 04:58:03;;;;;;;15.70;5.38;;;;;;;23.84;36.76;99931.47;5010629;28;20029;-76
2021/07/27 05:00:29;;;;;;;7.93;4.85;;;;;;;23.77;36.59;99901.16;5010951;28;20030;-75
2021/07/27 05:02:57;;;;;;;11.10;4.80;;;;;;;24.16;36.62;99963.84;5010688;28;20462;-76
2021/07/27 05:05:23;;;;;;;9.55;4.32;;;;;;;24.10;36.47;99929.78;5013774;28;20022;-76
2021/07/27 05:07:48;;;;;;;9.18;4.68;;;;;;;24.14;36.63;99928.22;5014728;28;20041;-77
2021/07/27 05:10:14;;;;;;;11.60;5.43;;;;;;;24.44;36.62;99960.03;5014594;28;20025;-76
2021/07/27 05:12:39;;;;;;;11.93;5.38;;;;;;;24.30;36.39;99946.19;5031550;28;20028;-75
2021/07/27 05:15:05;;;;;;;16.92;5.45;;;;;;;24.00;36.49;99871.19;5032827;28;20021;-75
2021/07/27 05:17:31;;;;;;;10.15;5.50;;;;;;;24.43;36.45;99928.72;5016422;28;20026;-75
2021/07/27 05:19:56;;;;;;;11.55;5.50;;;;;;;24.63;36.60;99955.06;5017456;28;20414;-75
2021/07/27 05:22:25;;;;;;;14.95;5.70;;;;;;;24.75;36.78;99950.28;5032406;28;20022;-75
2021/07/27 05:24:51;;;;;;;11.05;5.20;;;;;;;24.60;36.63;99928.59;5032040;28;20079;-81
2021/07/27 05:27:24;;;;;;;8.07;5.03;;;;;;;24.87;36.59;99955.50;5014150;28;20029;-80
2021/07/27 05:29:54;;;;;;;9.32;5.25;;;;;;;24.51;36.55;99908.53;5014119;28;20110;-79
2021/07/27 05:32:21;;;;;;;9.13;5.90;;;;;;;24.99;36.63;99956.94;5014018;28;20021;-81
2021/07/27 05:34:46;;;;;;;9.25;5.03;;;;;;;24.95;36.29;99955.00;5013861;28;20323;-82
2021/07/27 05:37:12;;;;;;;16.33;5.03;;;;;;;24.56;35.94;99897.78;5029292;28;20478;-81
2021/07/27 05:39:37;;;;;;;9.82;4.75;;;;;;;24.76;35.89;99919.50;5014040;28;20037;-81
2021/07/27 05:42:03;;;;;;;8.95;5.45;;;;;;;24.75;36.10;99901.69;5015495;28;20380;-80
2021/07/27 05:44:28;;;;;;;11.15;4.90;;;;;;;24.66;35.79;99878.94;5013413;28;20026;-82
2021/07/27 05:46:55;;;;;;;7.72;4.10;;;;;;;25.12;35.82;99947.53;5016895;28;20038;-81
2021/07/27 05:49:21;;;;;;;9.10;4.07;;;;;;;25.40;35.57;99977.94;5013837;28;20022;-82
2021/07/27 05:51:50;;;;;;;8.40;4.20;;;;;;;25.03;35.37;99919.41;5013668;28;20105;-80
2021/07/27 05:54:19;;;;;;;10.60;4.93;;;;;;;25.32;35.63;99954.94;5013555;28;21046;-81
2021/07/27 05:56:45;;;;;;;12.25;5.35;;;;;;;25.17;35.62;99909.72;5018465;28;20045;-81
2021/07/27 05:59:11;;;;;;;17.80;5.07;;;;;;;25.20;35.66;99894.88;5032175;28;20112;-80
2021/07/27 06:01:36;;;;;;;14.55;5.75;;;;;;;25.71;35.88;99957.25;5033118;28;20514;-81
2021/07/27 06:04:02;;;;;;;7.28;4.30;;;;;;;25.64;35.62;99933.13;5033222;28;20043;-81
2021/07/27 06:06:31;;;;;;;11.85;4.53;;;;;;;25.77;35.72;99940.75;5033163;28;20017;-80
2021/07/27 06:09:02;;;;;;;9.82;4.57;;;;;;;25.48;35.73;99888.22;5027934;28;20034;-81
2021/07/27 06:11:28;;;;;;;6.63;4.75;;;;;;;25.98;35.50;99950.50;5013664;28;20064;-81
2021/07/27 06:13:53;;;;;;;9.10;4.75;;;;;;;26.03;35.65;99957.03;5028061;28;20056;-81
2021/07/27 06:16:18;;;;;;;7.28;5.15;;;;;;;25.96;35.95;99932.94;5046621;28;20025;-80
2021/07/27 06:18:44;;;;;;;11.00;5.53;;;;;;;25.86;35.73;99912.09;5025143;28;20088;-79
2021/07/27 06:21:11;;;;;;;7.10;4.55;;;;;;;26.15;35.99;99944.88;5014135;28;20026;-80
2021/07/27 06:23:37;;;;;;;9.00;5.15;;;;;;;26.17;35.99;99948.13;5014036;28;20022;-72
2021/07/27 06:26:05;;;;;;;6.07;4.60;;;;;;;26.06;35.96;99921.31;5017287;28;20025;-74
2021/07/27 06:28:31;;;;;;;6.28;4.63;;;;;;;26.04;36.32;99915.38;5031210;28;20025;-73
2021/07/27 06:30:57;;;;;;;7.78;5.18;;;;;;;26.15;36.29;99908.88;5017655;28;20503;-75
2021/07/27 06:33:22;;;;;;;8.52;5.55;;;;;;;26.46;35.93;99953.00;5018969;28;20026;-74
2021/07/27 06:35:48;;;;;;;8.13;6.18;;;;;;;26.53;36.03;99948.13;5013584;28;20102;-74
2021/07/27 06:38:13;;;;;;;10.20;5.75;;;;;;;26.34;35.93;99893.72;5030939;28;20026;-74
2021/07/27 06:40:39;;;;;;;10.38;7.13;;;;;;;26.44;35.90;99892.91;5026357;28;20036;-73
2021/07/27 06:43:04;;;;;;;7.70;5.70;;;;;;;26.57;35.90;99895.03;5019185;28;20573;-73
2021/07/27 06:45:30;;;;;;;5.65;5.05;;;;;;;26.48;35.68;99867.69;5014794;28;20045;-76
2021/07/27 06:47:55;;;;;;;5.50;5.00;;;;;;;26.99;35.60;99927.19;5016271;28;20493;-74
2021/07/27 06:50:20;;;;;;;8.93;5.60;;;;;;;26.98;35.90;99920.16;5035041;28;20474;-73
2021/07/27 06:52:46;;;;;;;7.30;5.40;;;;;;;26.84;35.62;99878.44;5024684;28;20021;-74
2021/07/27 06:55:11;;;;;;;10.05;7.82;;;;;;;27.22;35.74;99931.16;5013890;28;20096;-75
2021/07/27 06:57:37;;;;;;;7.97;5.65;;;;;;;26.99;35.60;99907.41;5015712;28;20021;-75
2021/07/27 07:00:04;;;;;;;6.30;5.53;;;;;;;27.35;35.38;99930.56;5027792;28;20079;-75
2021/07/27 07:02:30;;;;;;;11.32;6.60;;;;;;;27.29;35.35;99907.28;5026639;28;20109;-75
2021/07/27 07:04:56;;;;;;;6.47;5.40;;;;;;;27.49;35.37;99933.47;5010360;28;20113;-76
2021/07/27 07:07:22;;;;;;;8.07;5.88;;;;;;;27.38;35.56;99896.66;5011102;28;20029;-75
2021/07/27 07:09:47;;;;;;;7.80;5.22;;;;;;;27.03;35.07;99836.13;5015602;28;20022;-76
2021/07/27 07:12:13;;;;;;;6.63;5.57;;;;;;;27.40;34.89;99879.00;5024933;28;20052;-74
2021/07/27 07:14:39;;;;;;;8.02;5.70;;;;;;;27.80;34.94;99921.38;5024903;28;20441;-73
2021/07/27 07:17:04;;;;;;;9.13;5.90;;;;;;;27.89;35.23;99923.50;5015598;28;20030;-73
2021/07/27 07:19:30;;;;;;;7.72;5.38;;;;;;;27.59;35.00;99867.53;5025460;28;20036;-73
2021/07/27 07:21:55;;;;;;;8.82;6.00;;;;;;;28.00;34.94;99920.41;5014495;28;20045;-74
2021/07/27 07:24:21;;;;;;;5.72;4.68;;;;;;;27.94;34.80;99893.59;5043307;28;20022;-79
2021/07/27 07:26:49;;;;;;;6.40;5.18;;;;;;;28.16;34.61;99919.19;5025024;28;20032;-80
2021/07/27 07:29:15;;;;;;;6.72;6.03;;;;;;;28.04;34.82;99882.66;5024644;28;20571;-80
2021/07/27 07:31:40;;;;;;;10.00;5.88;;;;;;;28.28;34.45;99907.22;5022378;28;20013;-77
2021/07/27 07:34:05;;;;;;;9.30;6.10;;;;;;;28.03;34.71;99854.69;5011489;28;20026;-78
2021/07/27 07:36:31;;;;;;;10.10;8.23;;;;;;;28.22;34.67;99873.78;5011558;28;20026;-79
2021/07/27 07:38:56;;;;;;;7.85;6.72;;;;;;;28.29;34.39;99868.91;5010883;28;20032;-80
2021/07/27 07:41:23;;;;;;;7.00;6.30;;;;;;;28.59;34.20;99908.50;5033466;28;20013;-80
2021/07/27 07:43:49;;;;;;;9.35;5.55;;;;;;;28.42;33.87;99891.84;5034106;28;20039;-80
2021/07/27 07:46:14;;;;;;;8.75;6.63;;;;;;;28.74;33.61;99919.22;5029341;28;20020;-78
2021/07/27 07:48:41;;;;;;;6.95;5.65;;;;;;;28.46;33.79;99877.41;5015320;28;20052;-80
2021/07/27 07:51:06;;;;;;;13.07;5.90;;;;;;;28.66;33.54;99902.75;5011382;28;20037;-80
2021/07/27 07:53:33;;;;;;;8.25;6.22;;;;;;;28.89;33.46;99926.41;5011334;28;20068;-80
2021/07/27 07:55:58;;;;;;;8.60;5.45;;;;;;;29.00;33.30;99927.13;5010374;28;20372;-80
2021/07/27 07:58:23;;;;;;;9.55;6.07;;;;;;;29.10;33.18;99933.25;5018666;28;20088;-80
2021/07/27 08:00:49;;;;;;;7.82;5.25;;;;;;;28.52;33.05;99818.41;5010707;28;20038;-80
2021/07/27 08:03:15;;;;;;;7.28;5.10;;;;;;;29.12;32.65;99902.25;5011477;28;20057;-80
2021/07/27 08:05:40;;;;;;;8.00;5.25;;;;;;;29.26;32.44;99908.59;5017476;28;20478;-80
2021/07/27 08:08:05;;;;;;;7.25;6.20;;;;;;;29.00;32.19;99861.88;5015199;28;20029;-81
2021/07/27 08:10:31;;;;;;;20.27;18.23;;;;;;;29.17;32.45;99880.41;5013404;28;20101;-80
2021/07/27 08:12:56;;;;;;;23.40;21.10;;;;;;;29.55;32.28;99914.72;5023606;28;20021;-79
2021/07/27 08:15:26;;;;;;;10.93;7.28;;;;;;;29.36;32.25;99867.63;5024856;28;20064;-79
2021/07/27 08:17:52;;;;;;;11.30;7.00;;;;;;;29.83;32.58;99921.13;5019890;28;20108;-80
2021/07/27 08:20:18;;;;;;;10.27;5.47;;;;;;;29.89;32.43;99921.88;5010522;28;20116;-80
2021/07/27 08:22:43;;;;;;;5.47;4.97;;;;;;;29.82;31.96;99889.56;5024982;28;20048;-79
2021/07/27 08:25:21;;;;;;;6.15;5.22;;;;;;;30.15;31.57;99920.38;5024010;28;20503;-74
2021/07/27 08:27:47;;;;;;;5.82;4.93;;;;;;;30.24;31.70;99910.41;5019663;28;20025;-74
2021/07/27 08:30:14;;;;;;;9.40;8.23;;;;;;;30.38;31.42;99917.78;5029301;28;20088;-73
2021/07/27 08:32:47;;;;;;;7.07;6.38;;;;;;;30.10;30.36;99867.91;5031542;28;20099;-76
2021/07/27 08:35:14;;;;;;;6.25;4.53;;;;;;;30.14;30.90;99871.66;5045758;28;20017;-73
2021/07/27 08:37:39;;;;;;;11.23;9.13;;;;;;;30.36;30.75;99899.84;5034743;28;20429;-75
2021/07/27 08:40:06;;;;;;;13.70;10.85;;;;;;;30.51;30.60;99879.69;5018964;28;20030;-74
2021/07/27 08:42:33;;;;;;;8.05;5.82;;;;;;;30.64;30.29;99883.56;5024488;28;20036;-76
2021/07/27 08:45:01;;;;;;;8.18;4.78;;;;;;;30.60;30.25;99861.56;5017471;28;20050;-75
2021/07/27 08:47:27;;;;;;;10.73;5.47;;;;;;;30.67;29.84;99861.97;5014681;28;20037;-77
2021/07/27 08:49:55;;;;;;;7.57;5.32;;;;;;;31.03;29.29;99906.78;5014547;28;20060;-75
2021/07/27 08:52:21;;;;;;;6.07;4.80;;;;;;;30.97;29.16;99879.59;5021592;28;20021;-74
2021/07/27 08:54:47;;;;;;;8.68;5.68;;;;;;;31.07;29.13;99892.22;5016783;28;20036;-74
2021/07/27 08:57:14;;;;;;;11.60;5.03;;;;;;;30.86;28.99;99845.50;5017764;28;20037;-74
2021/07/27 08:59:40;;;;;;;8.25;5.32;;;;;;;30.94;28.56;99843.97;5016301;28;20045;-75
2021/07/27 09:02:05;;;;;;;6.70;5.10;;;;;;;31.41;28.56;99897.25;5031367;28;20060;-76
2021/07/27 09:04:30;;;;;;;7.97;5.63;;;;;;;31.53;28.49;99897.53;5032756;28;20053;-76
2021/07/27 09:07:00;;;;;;;9.18;5.53;;;;;;;31.27;28.38;99825.56;5014183;28;20029;-75
2021/07/27 09:09:30;;;;;;;8.27;5.22;;;;;;;31.67;28.00;99859.25;5013561;28;20045;-72
2021/07/27 09:11:57;;;;;;;8.60;5.38;;;;;;;31.86;27.92;99879.00;5014172;28;20117;-72
2021/07/27 09:14:25;;;;;;;11.55;8.50;;;;;;;32.05;28.04;99884.31;5016183;28;20022;-74
2021/07/27 09:16:53;;;;;;;16.02;14.02;;;;;;;32.26;27.84;99878.34;5020979;28;20517;-76
2021/07/27 09:19:19;;;;;;;9.27;8.38;;;;;;;32.29;27.42;99853.13;5014244;28;20498;-76
2021/07/27 09:21:46;;;;;;;7.45;5.93;;;;;;;32.63;27.08;99885.25;5016731;28;20049;-73
2021/07/27 09:24:34;;;;;;;9.20;7.70;;;;;;;32.79;26.88;99891.97;5036921;28;20013;-78
2021/07/27 09:27:05;;;;;;;6.63;5.57;;;;;;;32.88;26.39;99894.72;5040733;28;20037;-81
2021/07/27 09:29:32;;;;;;;11.13;5.63;;;;;;;33.02;25.93;99898.94;5026182;28;20033;-80
2021/07/27 09:32:00;;;;;;;5.55;4.60;;;;;;;33.16;25.57;99891.41;5030607;28;20036;-80
2021/07/27 09:34:27;;;;;;;11.55;5.70;;;;;;;33.34;25.22;99888.72;5031845;28;20121;-80
2021/07/27 09:37:13;;;;;;;9.18;5.57;;;;;;;33.44;25.09;99889.22;5017354;28;20419;-79
2021/07/27 09:39:39;;;;;;;5.78;4.47;;;;;;;33.12;24.52;99830.22;5015674;28;20033;-79
2021/07/27 09:42:09;;;;;;;7.75;5.60;;;;;;;33.54;24.41;99884.56;5013440;28;20041;-79
2021/07/27 09:44:37;;;;;;;7.65;5.22;;;;;;;33.72;24.59;99881.50;5013970;28;20113;-80
2021/07/27 09:47:03;;;;;;;10.30;6.45;;;;;;;32.34;24.79;99635.16;5020918;28;20505;-80
2021/07/27 09:49:29;;;;;;;9.00;5.60;;;;;;;33.72;24.45;99814.94;5019218;28;20065;-80
2021/07/27 09:51:58;;;;;;;7.70;5.05;;;;;;;34.32;23.63;99882.53;5016170;28;20123;-80
2021/07/27 09:54:25;;;;;;;7.18;4.47;;;;;;;34.29;23.46;99867.56;5030820;28;20041;-80
2021/07/27 09:56:55;;;;;;;6.78;4.53;;;;;;;33.97;23.09;99814.09;5033078;28;20021;-81
2021/07/27 09:59:24;;;;;;;6.93;4.22;;;;;;;34.06;22.63;99811.34;5041405;28;20029;-79
2021/07/27 10:01:58;;;;;;;5.20;3.90;;;;;;;34.59;22.07;99864.88;5040325;28;20479;-80
2021/07/27 10:04:27;;;;;;;5.65;4.70;;;;;;;34.34;22.01;99798.88;5050556;28;20512;-80
2021/07/27 10:06:53;;;;;;;10.35;5.28;;;;;;;34.91;22.74;99858.75;5043148;28;20013;-80
2021/07/27 10:09:23;;;;;;;15.98;13.75;;;;;;;35.17;22.31;99857.78;5039871;28;20093;-80
2021/07/27 10:11:49;;;;;;;5.22;4.72;;;;;;;35.30;21.89;99857.53;5049731;28;20028;-80
2021/07/27 10:14:16;;;;;;;6.55;5.65;;;;;;;35.00;21.20;99793.66;5039646;28;20037;-81
2021/07/27 10:16:43;;;;;;;5.88;4.45;;;;;;;35.42;21.02;99850.53;5032810;28;20018;-80
2021/07/27 10:19:22;;;;;;;6.03;4.20;;;;;;;35.08;20.77;99789.25;5046898;28;20111;-80
2021/07/27 10:22:01;;;;;;;6.22;4.68;;;;;;;35.57;20.91;99842.47;5035140;28;20031;-80
2021/07/27 10:24:35;;;;;;;7.43;5.00;;;;;;;35.53;20.72;99803.06;5050669;28;20501;-81
2021/07/27 10:27:10;;;;;;;6.20;4.57;;;;;;;35.89;20.21;99831.84;5051363;28;20115;-81
2021/07/27 10:29:36;;;;;;;9.15;5.25;;;;;;;35.99;20.77;99831.41;5040458;28;20075;-82
2021/07/27 10:32:22;;;;;;;12.35;7.72;;;;;;;35.91;21.02;99794.66;5036015;28;20112;-80
2021/07/27 10:34:48;;;;;;;7.90;5.68;;;;;;;36.14;20.75;99833.50;5042459;28;20486;-80
2021/07/27 10:37:16;;;;;;;9.52;6.88;;;;;;;35.95;20.12;99790.06;5032366;28;20044;-80
2021/07/27 10:39:59;;;;;;;7.10;4.78;;;;;;;36.38;20.16;99823.69;5038453;28;20060;-82
2021/07/27 10:42:36;;;;;;;8.77;7.50;;;;;;;36.54;20.58;99824.66;5032630;28;20029;-80
2021/07/27 10:45:02;;;;;;;7.43;5.10;;;;;;;36.68;20.22;99827.84;5031085;28;20064;-81
2021/07/27 10:47:28;;;;;;;9.15;4.82;;;;;;;36.68;19.98;99814.09;5042306;28;20117;-81
2021/07/27 10:50:02;;;;;;;10.02;5.75;;;;;;;36.95;19.82;99814.53;5063905;28;20039;-81
2021/07/27 10:52:28;;;;;;;9.35;5.43;;;;;;;36.81;19.91;99776.38;5039479;28;20083;-81
2021/07/27 10:54:58;;;;;;;6.13;4.80;;;;;;;37.28;19.72;99820.69;5036537;28;20525;-80
2021/07/27 10:58:03;;;;;;;10.45;5.05;;;;;;;37.27;19.37;99813.56;5031945;28;20031;-82
2021/07/27 11:00:35;;;;;;;6.57;4.90;;;;;;;37.35;19.44;99814.56;5027506;28;20437;-81
2021/07/27 11:03:02;;;;;;;7.57;4.90;;;;;;;37.36;19.54;99805.97;5046445;28;20033;-80
2021/07/27 11:05:28;;;;;;;8.57;5.57;;;;;;;36.93;19.60;99751.56;5041317;28;20022;-79
2021/07/27 11:07:54;;;;;;;8.30;6.00;;;;;;;37.34;19.63;99801.94;5042197;28;20483;-81
2021/07/27 11:10:21;;;;;;;14.98;12.30;;;;;;;37.05;20.12;99732.25;5059717;28;20028;-81
2021/07/27 11:12:47;;;;;;;8.35;6.00;;;;;;;37.21;19.46;99763.41;5049799;28;20514;-80
2021/07/27 11:15:21;;;;;;;5.78;5.18;;;;;;;37.64;19.16;99802.38;5047297;28;20939;-81
2021/07/27 11:17:52;;;;;;;7.05;6.03;;;;;;;37.48;19.27;99750.00;5047830;28;20017;-81
2021/07/27 11:20:23;;;;;;;8.45;5.88;;;;;;;37.94;19.08;99800.06;5034700;28;20078;-81
2021/07/27 11:22:53;;;;;;;14.15;8.15;;;;;;;38.15;19.22;99795.13;5048692;28;20029;-81
2021/07/27 11:25:19;;;;;;;;;;;;;;;38.22;18.98;99791.75;5047186;28;20028;-81
2021/07/27 11:27:45;;;;;;;10.10;6.45;;;;;;;37.97;19.00;99752.50;5031470;28;19913;-81
2021/07/27 11:30:12;;;;;;;8.23;7.35;;;;;;;38.29;18.98;99781.69;5031302;28;20521;-81
2021/07/27 11:32:50;;;;;;;6.40;4.78;;;;;;;38.39;18.60;99800.44;5031378;28;20037;-80
2021/07/27 11:35:22;;;;;;;9.23;7.38;;;;;;;38.21;18.71;99754.28;5030151;28;20476;-80
2021/07/27 11:38:03;;;;;;;8.60;6.50;;;;;;;38.13;18.52;99745.00;5038133;28;20013;-79
2021/07/27 11:40:29;;;;;;;9.10;5.40;;;;;;;38.16;18.56;99733.28;5050423;28;20497;-80
2021/07/27 11:43:10;;;;;;;8.32;4.60;;;;;;;38.52;18.12;99770.78;5043206;28;20075;-81
2021/07/27 11:45:37;;;;;;;6.78;5.63;;;;;;;38.45;18.19;99738.31;5030413;28;20167;-81
2021/07/27 11:48:03;;;;;;;5.38;4.90;;;;;;;38.80;18.03;99759.63;5042083;28;20060;-80
2021/07/27 11:50:31;;;;;;;4.63;4.18;;;;;;;38.87;18.21;99765.28;5042888;28;20032;-81